Terminal Aerodrome Forecast
Issued by NWS

Home | Current Version | Previous Version | Text Only | Print | Product List | Glossary On
Versions: 1 2 3 4 5 6 7 8 9 10 11 12 13 14 15 16 17 18 19 20 21 22 23
417
FTUS46 KSEW 221700
TAFHQM
TAF
KHQM 221738Z 2218/2318 24012KT 4SM BR VCSH SCT008 OVC015
      TEMPO 2218/2221 2SM -DZ BR BKN008 OVC015
     FM222100 24012KT P6SM VCSH OVC020
     FM230300 25006KT 5SM BR OVC010=

USA.gov is the U.S. government's official web portal to all federal, state and local government web resources and services.